Time,TemperatureF,DewpointF,PressureIn,WindDirection,WindDirectionDegrees,WindSpeedMPH,WindSpeedGustMPH,Humidity,HourlyPrecipIn,Conditions,Clouds,dailyrainin,SoftwareType,DateUTC
2013-08-06 01:00:00,59.0,-99.9,-100.00,North,-999,-999.0,-999.0,-999,-99.99,,,0.00,,2013-08-06 07:00:00,
2013-08-06 01:53:00,59.0,-99.9,-100.00,North,-999,-999.0,-999.0,-999,-99.99,,,0.00,,2013-08-06 07:53:00,
2013-08-06 02:00:00,57.0,-99.9,-100.00,ENE,77,1.0,4.0,-999,-99.99,,,-99.99,,2013-08-06 08:00:00,
2013-08-06 08:00:00,49.0,-99.9,-100.00,East,101,1.0,2.0,-999,-99.99,,,0.00,,2013-08-06 14:00:00,
2013-08-06 09:00:00,59.0,-99.9,-100.00,West,275,2.0,4.0,-999,-99.99,,,0.00,,2013-08-06 15:00:00,
2013-08-06 09:52:00,59.0,-99.9,-100.00,West,275,2.0,4.0,-999,-99.99,,,0.00,,2013-08-06 15:52:00,
2013-08-06 10:00:00,65.0,-99.9,-100.00,NNW,330,2.0,4.0,-999,-99.99,,,0.00,,2013-08-06 16:00:00,
2013-08-06 11:00:00,72.0,-99.9,-100.00,West,272,1.0,4.0,-999,-99.99,,,0.00,,2013-08-06 17:00:00,
2013-08-06 12:00:00,75.0,-99.9,-100.00,WNW,283,2.0,6.0,-999,-99.99,,,0.00,,2013-08-06 18:00:00,
2013-08-06 14:00:00,79.0,-99.9,-100.00,NNW,345,4.0,12.0,-999,-99.99,,,0.00,,2013-08-06 20:00:00,
2013-08-06 15:00:00,81.0,-99.9,-100.00,NNW,348,3.0,8.0,-999,-99.99,,,0.00,,2013-08-06 21:00:00,
2013-08-06 16:00:00,83.0,-99.9,-100.00,NW,312,3.0,7.0,-999,-99.99,,,0.00,,2013-08-06 22:00:00,
2013-08-06 17:00:00,83.0,-99.9,-100.00,NNW,336,3.0,8.0,-999,-99.99,,,-99.99,,2013-08-06 23:00:00,
2013-08-06 17:43:00,83.0,-99.9,-100.00,NNW,336,3.0,8.0,-999,-99.99,,,-99.99,,2013-08-06 23:43:00,
2013-08-06 17:52:00,83.0,-99.9,-100.00,NNW,336,3.0,8.0,-999,-99.99,,,-99.99,,2013-08-06 23:52:00,
2013-08-06 18:00:00,82.0,-99.9,-100.00,WNW,284,4.0,9.0,-999,-99.99,,,0.00,,2013-08-07 00:00:00,
2013-08-06 18:52:00,82.0,-99.9,-100.00,WNW,284,4.0,9.0,-999,-99.99,,,-99.99,,2013-08-07 00:52:00,
2013-08-06 19:00:00,81.0,-99.9,-100.00,West,263,4.0,8.0,-999,-99.99,,,0.00,,2013-08-07 01:00:00,
2013-08-06 20:00:00,79.0,-99.9,-100.00,West,269,2.0,5.0,-999,-99.99,,,0.00,,2013-08-07 02:00:00,
2013-08-06 21:00:00,70.0,-99.9,-100.00,NW,322,3.0,5.0,-999,-99.99,,,0.00,,2013-08-07 03:00:00,
2013-08-06 22:00:00,62.0,-99.9,-100.00,NW,311,1.0,3.0,-999,-99.99,,,0.00,,2013-08-07 04:00:00,
2013-08-06 23:00:00,56.0,-99.9,-100.00,North,9,1.0,4.0,-999,-99.99,,,0.00,,2013-08-07 05:00:00,